Eden, North Carolina
Current Conditions -  °F | °C
As of 11:55 AM on Friday 24 Oct 2014 (Local Time) from KSIF Reporting Station
Clear Clear  
Wind Chill: 17°   Ceiling: Unl
Heat Index: 17°   Visibility: 10mi
Dew Point:   Wind: 5mph
Humidity: 48%   Direction: 300°WNW
Pressure: 30.06"   Gusts: NA
Location:  36.5°N, 79.74°W
Report Text: KSIF 241555Z AUTO 30004KT 10SM CLR 17/06 A3006 RMK AO2 T01730062
Loading
Personal Weather Stations






























Interactive Weather Map
Tropical Storm Tracking
New forecast layout! Learn more

10-Day Weather Forecast

Advertisements
Track Severe Weather on mobile